NJE2AW EBLG-LFGA
Flight info
| Callsign | NJE2AW |
|---|---|
| Flight time | N/A |
| Altitude | 29000 |
| Route | LNO N852 GTQ V17 SOREM |
| Aircraft | GL5T/M-SDE3FGHIRWY/LB1 |
Departure
| Time | 2026-04-27 17:19 |
|---|---|
| Airport | Liège Airport (EBLG) |
Arrival
| Time | N/A |
|---|---|
| Airport | Colmar Houssen airport (LFGA) |
| Time | Latitude | Longitude | Altitude | Speed | Heading |
|---|---|---|---|---|---|
| 2026-04-27 17:15 | 50.63423 | 5.44439 | 625 ft | 0 kts | 134° |
| 2026-04-27 17:15 | 50.63422 | 5.44439 | 625 ft | 0 kts | 134° |
| 2026-04-27 17:15 | 50.63421 | 5.44441 | 625 ft | 0 kts | 135° |
| 2026-04-27 17:16 | 50.63416 | 5.44449 | 625 ft | 2 kts | 136° |
| 2026-04-27 17:16 | 50.63401 | 5.44465 | 634 ft | 1 kts | 163° |
| 2026-04-27 17:16 | 50.63396 | 5.44460 | 634 ft | 0 kts | 204° |
| 2026-04-27 17:16 | 50.63392 | 5.44402 | 628 ft | 9 kts | 297° |
| 2026-04-27 17:17 | 50.63422 | 5.44307 | 634 ft | 11 kts | 292° |
| 2026-04-27 17:17 | 50.63384 | 5.44215 | 639 ft | 10 kts | 225° |
| 2026-04-27 17:17 | 50.63339 | 5.44144 | 639 ft | 8 kts | 225° |
| 2026-04-27 17:18 | 50.63235 | 5.43975 | 640 ft | 14 kts | 226° |
| 2026-04-27 17:18 | 50.63192 | 5.43866 | 640 ft | 6 kts | 295° |
| 2026-04-27 17:18 | 50.63262 | 5.43836 | 641 ft | 30 kts | 12° |
| 2026-04-27 17:18 | 50.63364 | 5.43850 | 641 ft | 15 kts | 357° |
| 2026-04-27 17:19 | 50.63432 | 5.43925 | 638 ft | 14 kts | 45° |
| 2026-04-27 17:19 | 50.63630 | 5.44246 | 634 ft | 88 kts | 44° |
| 2026-04-27 17:19 | 50.64237 | 5.45217 | 892 ft | 142 kts | 45° |
| 2026-04-27 17:19 | 50.64961 | 5.46391 | 1716 ft | 156 kts | 46° |
| 2026-04-27 17:20 | 50.65756 | 5.47667 | 2607 ft | 169 kts | 46° |
| 2026-04-27 17:20 | 50.66646 | 5.49048 | 3319 ft | 191 kts | 45° |
| 2026-04-27 17:20 | 50.67650 | 5.50613 | 4163 ft | 213 kts | 45° |
| 2026-04-27 17:20 | 50.68732 | 5.52335 | 5142 ft | 227 kts | 45° |
| 2026-04-27 17:21 | 50.69856 | 5.54123 | 6118 ft | 235 kts | 43° |
| 2026-04-27 17:21 | 50.71221 | 5.55520 | 7201 ft | 238 kts | 20° |
| 2026-04-27 17:21 | 50.72849 | 5.55981 | 8214 ft | 242 kts | 355° |
| 2026-04-27 17:21 | 50.74484 | 5.55297 | 9231 ft | 248 kts | 329° |
| 2026-04-27 17:22 | 50.75773 | 5.53501 | 10299 ft | 251 kts | 304° |
| 2026-04-27 17:22 | 50.76538 | 5.51014 | 11305 ft | 255 kts | 287° |
| 2026-04-27 17:22 | 50.77057 | 5.48313 | 12388 ft | 256 kts | 284° |
| 2026-04-27 17:22 | 50.77500 | 5.45605 | 13581 ft | 255 kts | 283° |
| 2026-04-27 17:23 | 50.77825 | 5.42840 | 14594 ft | 256 kts | 267° |
| 2026-04-27 17:23 | 50.77225 | 5.40209 | 15433 ft | 267 kts | 233° |
| 2026-04-27 17:23 | 50.75638 | 5.38564 | 16143 ft | 288 kts | 198° |
| 2026-04-27 17:23 | 50.73573 | 5.38456 | 16895 ft | 308 kts | 177° |
| 2026-04-27 17:24 | 50.71438 | 5.39361 | 17482 ft | 332 kts | 158° |
| 2026-04-27 17:24 | 50.69536 | 5.41627 | 18035 ft | 356 kts | 138° |
| 2026-04-27 17:24 | 50.67938 | 5.44729 | 18539 ft | 375 kts | 127° |
| 2026-04-27 17:24 | 50.66545 | 5.48310 | 18993 ft | 390 kts | 122° |
| 2026-04-27 17:25 | 50.65263 | 5.52178 | 19399 ft | 406 kts | 118° |
| 2026-04-27 17:25 | 50.63978 | 5.56237 | 19791 ft | 420 kts | 119° |
| 2026-04-27 17:25 | 50.62636 | 5.60407 | 20199 ft | 433 kts | 123° |
| 2026-04-27 17:25 | 50.61230 | 5.64659 | 20621 ft | 443 kts | 122° |
| 2026-04-27 17:26 | 50.59432 | 5.68622 | 21027 ft | 446 kts | 139° |
| 2026-04-27 17:26 | 50.56920 | 5.71366 | 21639 ft | 440 kts | 157° |
| 2026-04-27 17:26 | 50.54133 | 5.73372 | 22162 ft | 442 kts | 162° |
| 2026-04-27 17:26 | 50.51235 | 5.75069 | 22563 ft | 447 kts | 165° |
| 2026-04-27 17:27 | 50.48299 | 5.76800 | 23038 ft | 453 kts | 163° |
| 2026-04-27 17:27 | 50.45355 | 5.78604 | 23547 ft | 456 kts | 163° |
| 2026-04-27 17:27 | 50.42387 | 5.80435 | 23992 ft | 460 kts | 163° |
| 2026-04-27 17:27 | 50.39440 | 5.82229 | 24406 ft | 462 kts | 164° |
| 2026-04-27 17:28 | 50.36426 | 5.84029 | 24809 ft | 465 kts | 164° |
| 2026-04-27 17:28 | 50.33390 | 5.85806 | 25203 ft | 467 kts | 165° |
| 2026-04-27 17:28 | 50.28624 | 5.88553 | 25768 ft | 470 kts | 165° |